This is the latest recevied weather packets stored in our database for station/object W1LBM. If no packets are shown the sender has not sent any weather packets the latest 10 day(s).
| Time | Temp. | Humidity | Pressure | Rain* | Wind** | Luminosity | Snow |
|---|---|---|---|---|---|---|---|
| 1778154082 | 9.44° C | 99% | 1011.3 hPa | 0 mm | - | 68 W/m² | - |
| 1778153780 | 9.44° C | 99% | 1011.5 hPa | 0 mm | - | 37 W/m² | - |
| 1778153476 | 9.44° C | 99% | 1011.3 hPa | 0 mm | - | 36 W/m² | - |
| 1778153174 | 9.44° C | 99% | 1011.2 hPa | 0 mm | - | 42 W/m² | - |
| 1778152871 | 9.44° C | 99% | 1011.5 hPa | 0 mm | - | 30 W/m² | - |
| 1778152568 | 9.44° C | 99% | 1011.4 hPa | 0 mm | - | 27 W/m² | - |
| 1778152264 | 9.44° C | 99% | 1011.2 hPa | 1.27 mm | - | 39 W/m² | - |
| 1778151961 | 9.44° C | 99% | 1011.2 hPa | 1.27 mm | - | 37 W/m² | - |
| 1778151657 | 9.44° C | 99% | 1011 hPa | 3.05 mm | - | 31 W/m² | - |
| 1778151354 | 8.89° C | 99% | 1011.3 hPa | 3.05 mm | - | 10 W/m² | - |
| 1778151050 | 8.89° C | 99% | 1011.2 hPa | 1.27 mm | - | 5 W/m² | - |
| 1778150748 | 8.89° C | 99% | 1011.1 hPa | 1.78 mm | - | 3 W/m² | - |
| 1778150444 | 8.89° C | 99% | 1010.7 hPa | 1.78 mm | - | 7 W/m² | - |
| 1778150140 | 8.89° C | 98% | 1010.9 hPa | 1.78 mm | - | 6 W/m² | - |
| 1778149837 | 8.89° C | 98% | 1010.9 hPa | 1.27 mm | - | 8 W/m² | - |
| 1778149534 | 8.89° C | 98% | 1010.8 hPa | 3.05 mm | - | 13 W/m² | - |
| 1778149230 | 8.89° C | 98% | 1010.8 hPa | 3.56 mm | - | 6 W/m² | - |
| 1778148925 | 8.89° C | 98% | 1011.1 hPa | 1.78 mm | - | 3 W/m² | - |
| 1778148622 | 8.89° C | 98% | 1011.2 hPa | 0 mm | - | 3 W/m² | - |
| 1778148319 | 8.89° C | 98% | 1011.1 hPa | 0 mm | - | 4 W/m² | - |
| 1778148017 | 9.44° C | 98% | 1011 hPa | 0 mm | - | 10 W/m² | - |
| 1778147715 | 9.44° C | 98% | 1010.9 hPa | 1.27 mm | - | 4 W/m² | - |
| 1778147412 | 9.44° C | 98% | 1010.9 hPa | 1.27 mm | - | 2 W/m² | - |
| 1778147108 | 9.44° C | 98% | 1011 hPa | 0 mm | - | 1 W/m² | - |
| 1778146805 | 9.44° C | 98% | 1010.9 hPa | 0 mm | - | 1 W/m² | - |
* Rain latest hour (hover to see other rain measurements)
** Current wind speed in m/s (hover to see current wind gust speed)